Time;durP1;ratioP1;P1;durP2;ratioP2;P2;SDS_P1;SDS_P2;PMS_P1;PMS_P2;Temp;Humidity;BMP_temperature;BMP_pressure;BME280_temperature;BME280_humidity;BME280_pressure;Samples;Min_cycle;Max_cycle;Signal;HPM_P1;HPM_P2
2022/01/29 00:02:10;;;;;;;;;;;;;;;3.19;56.47;100870.63;4451693;32;33639;-82
2022/01/29 00:04:40;;;;;;;;;;;;;;;3.29;56.34;100878.91;4444016;32;35345;-85
2022/01/29 00:07:09;;;;;;;;;;;;;;;3.34;56.33;100876.94;4440846;32;34047;-80
2022/01/29 00:09:36;;;;;;;;;;;;;;;3.35;55.92;100878.63;4443795;32;33676;-81
2022/01/29 00:12:04;;;;;;;;;;;;;;;3.33;55.71;100883.94;4442048;32;35405;-87
2022/01/29 00:14:31;;;;;;;;;;;;;;;3.30;55.54;100881.47;4442521;32;35860;-82
2022/01/29 00:16:58;;;;;;;;;;;;;;;3.20;55.68;100888.09;4425421;32;32602;-83
2022/01/29 00:19:26;;;;;;;;;;;;;;;3.45;54.95;100893.91;4443205;32;34152;-83
2022/01/29 00:21:53;;;;;;;;;;;;;;;3.55;54.52;100897.81;4444043;32;34878;-85
2022/01/29 00:24:20;;;;;;;;;;;;;;;3.50;55.01;100894.53;4443674;32;34711;-85
2022/01/29 00:26:48;;;;;;;;;;;;;;;3.31;55.77;100896.34;4459538;32;34460;-81
2022/01/29 00:29:21;;;;;;;;;;;;;;;3.55;55.19;100903.06;4442608;32;34386;-86
2022/01/29 00:31:49;;;;;;;;;;;;;;;3.23;56.53;100884.47;4443570;32;35829;-84
2022/01/29 00:34:16;;;;;;;;;;;;;;;3.02;57.26;100901.22;4443830;32;34532;-85
2022/01/29 00:36:43;;;;;;;;;;;;;;;3.12;57.06;100900.75;4467443;32;33031;-84
2022/01/29 00:39:10;;;;;;;;;;;;;;;3.10;57.42;100896.47;4439100;32;33198;-84
2022/01/29 00:41:38;;;;;;;;;;;;;;;2.99;58.04;100901.37;4429424;32;33651;-84
2022/01/29 00:44:05;;;;;;;;;;;;;;;3.27;57.87;100900.03;4443726;32;34715;-83
2022/01/29 00:46:33;;;;;;;;;;;;;;;3.30;57.86;100896.44;4437976;32;34259;-86
2022/01/29 00:49:00;;;;;;;;;;;;;;;3.46;57.65;100890.34;4436689;32;33666;-87
2022/01/29 00:51:27;;;;;;;;;;;;;;;2.99;59.09;100889.09;4443890;32;34862;-82
2022/01/29 00:53:55;;;;;;;;;;;;;;;3.09;59.34;100892.16;4443750;32;35526;-87
2022/01/29 00:56:22;;;;;;;;;;;;;;;3.12;59.40;100899.91;4445658;32;33087;-83
2022/01/29 00:58:50;;;;;;;;;;;;;;;3.35;58.71;100911.06;4438206;32;34556;-85
2022/01/29 01:01:17;;;;;;;;;;;;;;;3.17;59.38;100909.28;4445714;32;34958;-83
2022/01/29 01:03:44;;;;;;;;;;;;;;;2.92;60.42;100916.59;4441891;32;34432;-85
2022/01/29 01:06:12;;;;;;;;;;;;;;;2.92;61.00;100915.72;4439209;32;32719;-82
2022/01/29 01:08:39;;;;;;;;;;;;;;;2.91;61.12;100906.12;4431418;32;32407;-84
2022/01/29 01:11:06;;;;;;;;;;;;;;;2.89;60.97;100921.13;4438258;32;34711;-85
2022/01/29 01:13:34;;;;;;;;;;;;;;;2.89;61.01;100931.63;4444207;32;33564;-83
2022/01/29 01:16:02;;;;;;;;;;;;;;;2.81;61.24;100912.72;4443637;32;33333;-85
2022/01/29 01:18:29;;;;;;;;;;;;;;;2.48;62.49;100926.50;4442329;32;32493;-83
2022/01/29 01:20:56;;;;;;;;;;;;;;;2.66;61.86;100928.31;4445838;32;34631;-83
2022/01/29 01:23:24;;;;;;;;;;;;;;;2.60;62.21;100936.47;4441999;32;33925;-85
2022/01/29 01:25:51;;;;;;;;;;;;;;;2.59;62.20;100940.88;4437282;32;33210;-82
2022/01/29 01:28:18;;;;;;;;;;;;;;;2.63;62.22;100934.56;4431176;32;33567;-85
2022/01/29 01:30:46;;;;;;;;;;;;;;;2.76;61.83;100933.13;4445585;32;35390;-84
2022/01/29 01:33:13;;;;;;;;;;;;;;;2.60;62.27;100923.34;4438645;32;33831;-84
2022/01/29 01:35:48;;;;;;;;;;;;;;;2.68;61.90;100937.84;4443938;32;33063;-82
2022/01/29 01:38:25;;;;;;;;;;;;;;;2.82;61.53;100938.06;4441371;32;33519;-87
2022/01/29 01:40:57;;;;;;;;;;;;;;;2.72;61.60;100934.16;4443381;32;35728;-84
2022/01/29 01:43:25;;;;;;;;;;;;;;;2.51;62.64;100927.22;4428005;32;34786;-86
2022/01/29 01:45:53;;;;;;;;;;;;;;;2.72;61.91;100941.19;4444569;32;32996;-81
2022/01/29 01:48:21;;;;;;;;;;;;;;;2.63;61.83;100934.56;4431275;32;34397;-85
2022/01/29 01:50:49;;;;;;;;;;;;;;;2.64;61.54;100925.75;4431720;32;35610;-81
2022/01/29 01:53:16;;;;;;;;;;;;;;;2.60;61.27;100926.81;4445719;32;34753;-82
2022/01/29 01:55:43;;;;;;;;;;;;;;;2.28;62.48;100926.50;4431215;32;32594;-85
2022/01/29 01:58:11;;;;;;;;;;;;;;;2.37;62.09;100921.72;4431123;32;34916;-86
2022/01/29 02:00:38;;;;;;;;;;;;;;;2.64;60.96;100922.28;4416532;32;33537;-84
2022/01/29 02:03:06;;;;;;;;;;;;;;;2.67;61.02;100932.66;4456132;32;34625;-85
2022/01/29 02:05:33;;;;;;;;;;;;;;;2.61;60.42;100911.94;4431207;32;32980;-81
2022/01/29 02:08:01;;;;;;;;;;;;;;;2.60;60.19;100916.31;4415959;32;33858;-83
2022/01/29 02:10:30;;;;;;;;;;;;;;;2.71;59.90;100923.75;4444418;32;34604;-85
2022/01/29 02:13:01;;;;;;;;;;;;;;;2.26;60.90;100916.06;4443590;32;34624;-86
2022/01/29 02:15:29;;;;;;;;;;;;;;;2.43;60.24;100921.44;4444376;32;32276;-84
2022/01/29 02:17:56;;;;;;;;;;;;;;;2.33;60.05;100921.94;4429307;32;34915;-85
2022/01/29 02:20:28;;;;;;;;;;;;;;;2.29;60.29;100931.69;4431037;32;35355;-82
2022/01/29 02:22:57;;;;;;;;;;;;;;;2.39;60.14;100929.53;4431472;32;34291;-85
2022/01/29 02:25:33;;;;;;;;;;;;;;;2.36;59.66;100924.41;4456257;32;33816;-85
2022/01/29 02:28:27;;;;;;;;;;;;;;;2.55;58.70;100944.53;4442721;32;33759;-84
2022/01/29 02:31:01;;;;;;;;;;;;;;;2.65;58.07;100926.62;4442746;32;33863;-82
2022/01/29 02:33:29;;;;;;;;;;;;;;;2.81;56.72;100921.47;4431820;32;34319;-83
2022/01/29 02:35:57;;;;;;;;;;;;;;;3.03;56.82;100905.59;4441668;32;34233;-84
2022/01/29 02:38:25;;;;;;;;;;;;;;;3.02;57.05;100915.25;4429873;32;33372;-84
2022/01/29 02:40:57;;;;;;;;;;;;;;;2.97;56.60;100927.75;4430934;32;34413;-85
2022/01/29 02:43:27;;;;;;;;;;;;;;;2.50;58.01;100935.16;4431553;32;34245;-83
2022/01/29 02:45:55;;;;;;;;;;;;;;;3.12;56.14;100934.94;4442679;32;32617;-85
2022/01/29 02:48:23;;;;;;;;;;;;;;;2.99;56.80;100925.91;4431196;32;33641;-85
2022/01/29 02:50:50;;;;;;;;;;;;;;;2.96;56.86;100938.31;4430889;32;34610;-84
2022/01/29 02:53:18;;;;;;;;;;;;;;;3.34;55.51;100934.78;4431005;32;34414;-84
2022/01/29 02:55:45;;;;;;;;;;;;;;;3.18;55.78;100939.91;4430771;32;31724;-85
2022/01/29 02:58:14;;;;;;;;;;;;;;;2.97;56.40;100937.41;4444644;32;33877;-86
2022/01/29 03:00:41;;;;;;;;;;;;;;;3.20;55.57;100931.94;4430846;32;34922;-85
2022/01/29 03:03:08;;;;;;;;;;;;;;;2.97;55.77;100934.78;4443216;32;35427;-81
2022/01/29 03:05:36;;;;;;;;;;;;;;;2.90;55.71;100936.84;4445228;32;32877;-81
2022/01/29 03:08:03;;;;;;;;;;;;;;;2.96;55.10;100930.44;4427582;32;35645;-84
2022/01/29 03:10:31;;;;;;;;;;;;;;;2.92;54.71;100924.47;4444791;32;36381;-83
2022/01/29 03:12:59;;;;;;;;;;;;;;;2.77;55.04;100935.66;4431056;32;34852;-84
2022/01/29 03:15:26;;;;;;;;;;;;;;;2.54;56.06;100932.34;4430775;32;32672;-85
2022/01/29 03:17:53;;;;;;;;;;;;;;;2.50;56.24;100938.66;4453329;32;34887;-86
2022/01/29 03:20:21;;;;;;;;;;;;;;;2.86;55.18;100951.00;4430729;32;35147;-85
2022/01/29 03:22:48;;;;;;;;;;;;;;;2.88;54.67;100949.19;4430695;32;32920;-81
2022/01/29 03:25:18;;;;;;;;;;;;;;;2.76;53.82;100954.12;4431435;32;32611;-87
2022/01/29 03:27:46;;;;;;;;;;;;;;;2.87;53.53;100957.97;4443043;32;33557;-84
2022/01/29 03:30:13;;;;;;;;;;;;;;;3.08;53.16;100971.94;4431514;32;35272;-84
2022/01/29 03:32:40;;;;;;;;;;;;;;;2.78;53.27;100965.44;4429370;32;33952;-84
2022/01/29 03:35:08;;;;;;;;;;;;;;;3.18;52.41;100968.84;4431687;32;34061;-81
2022/01/29 03:37:36;;;;;;;;;;;;;;;3.43;50.83;100958.87;4429553;32;34960;-83
2022/01/29 03:40:06;;;;;;;;;;;;;;;3.53;50.93;100960.16;4445826;32;34062;-85
2022/01/29 03:42:40;;;;;;;;;;;;;;;3.43;50.85;100965.91;4444932;32;34825;-85
2022/01/29 03:45:08;;;;;;;;;;;;;;;3.23;51.47;100966.00;4432413;32;33210;-86
2022/01/29 03:47:36;;;;;;;;;;;;;;;3.22;51.05;100964.28;4442893;32;34106;-84
2022/01/29 03:50:03;;;;;;;;;;;;;;;3.25;51.01;100972.03;4431268;32;34941;-86
2022/01/29 03:52:31;;;;;;;;;;;;;;;3.25;50.46;100967.62;4445440;32;34202;-85
2022/01/29 03:54:58;;;;;;;;;;;;;;;3.39;50.06;100969.59;4418528;32;31899;-82
2022/01/29 03:57:25;;;;;;;;;;;;;;;2.87;50.83;100967.66;4442100;32;34174;-85
2022/01/29 03:59:53;;;;;;;;;;;;;;;2.97;51.00;100964.56;4457093;32;34950;-85
2022/01/29 04:02:24;;;;;;;;;;;;;;;3.27;50.14;100962.28;4430486;32;34175;-85
2022/01/29 04:04:52;;;;;;;;;;;;;;;3.42;49.37;100967.69;4443713;32;33718;-85
2022/01/29 04:07:19;;;;;;;;;;;;;;;3.52;49.44;100973.38;4418533;32;34120;-84
2022/01/29 04:09:49;;;;;;;;;;;;;;;3.45;49.76;100977.22;4428861;32;36039;-84
2022/01/29 04:12:17;;;;;;;;;;;;;;;3.24;50.34;100978.22;4429676;32;34668;-82
2022/01/29 04:14:45;;;;;;;;;;;;;;;3.26;50.02;100986.88;4431430;32;32750;-86
2022/01/29 04:17:12;;;;;;;;;;;;;;;3.61;49.39;100971.16;4418147;32;33873;-83
2022/01/29 04:19:39;;;;;;;;;;;;;;;3.76;48.80;100980.09;4428636;32;36110;-86
2022/01/29 04:22:07;;;;;;;;;;;;;;;3.77;49.00;100966.03;4444106;32;36346;-84
2022/01/29 04:24:34;;;;;;;;;;;;;;;3.61;49.25;100971.16;4444319;32;33118;-85
2022/01/29 04:27:04;;;;;;;;;;;;;;;3.68;49.35;100958.59;4418628;32;34180;-85
2022/01/29 04:29:41;;;;;;;;;;;;;;;3.57;49.52;100958.22;4444531;32;34809;-85
2022/01/29 04:32:14;;;;;;;;;;;;;;;3.58;49.42;100949.44;4433693;32;34072;-84
2022/01/29 04:34:41;;;;;;;;;;;;;;;3.68;49.01;100950.69;4433518;32;33675;-86
2022/01/29 04:37:08;;;;;;;;;;;;;;;3.53;49.50;100946.16;4446674;32;34137;-81
2022/01/29 04:39:36;;;;;;;;;;;;;;;3.83;49.07;100939.41;4405047;32;35325;-87
2022/01/29 04:42:03;;;;;;;;;;;;;;;3.89;49.00;100939.97;4437553;32;33128;-83
2022/01/29 04:44:30;;;;;;;;;;;;;;;3.86;49.00;100941.91;4445720;32;33263;-84
2022/01/29 04:46:58;;;;;;;;;;;;;;;4.12;48.40;100938.81;4444099;32;34396;-85
2022/01/29 04:49:25;;;;;;;;;;;;;;;4.16;48.22;100938.59;4446750;32;35174;-86
2022/01/29 04:51:52;;;;;;;;;;;;;;;4.01;48.77;100942.00;4439815;32;34431;-83
2022/01/29 04:54:20;;;;;;;;;;;;;;;4.19;48.54;100929.69;4446807;32;33386;-86
2022/01/29 04:56:47;;;;;;;;;;;;;;;3.81;49.56;100947.41;4437073;32;33495;-84
2022/01/29 04:59:15;;;;;;;;;;;;;;;3.27;50.85;100930.72;4445561;32;36954;-85
2022/01/29 05:01:43;;;;;;;;;;;;;;;3.52;50.11;100926.88;4445232;32;34831;-83
2022/01/29 05:04:11;;;;;;;;;;;;;;;3.50;50.89;100938.41;4446765;32;33288;-85
2022/01/29 05:06:38;;;;;;;;;;;;;;;3.54;50.73;100939.97;4446551;32;34134;-86
2022/01/29 05:09:08;;;;;;;;;;;;;;;3.71;50.47;100932.94;4440967;32;34666;-85
2022/01/29 05:11:36;;;;;;;;;;;;;;;3.70;50.67;100940.94;4445114;32;33553;-83
2022/01/29 05:14:06;;;;;;;;;;;;;;;3.87;50.22;100946.25;4440935;32;32852;-82
2022/01/29 05:27:25;;;;;;;;;;;;;;;3.73;51.96;100956.56;4445885;32;34137;-85
2022/01/29 05:29:53;;;;;;;;;;;;;;;3.79;51.96;100951.87;4439700;32;35745;-84
2022/01/29 05:32:22;;;;;;;;;;;;;;;3.65;52.73;100956.09;4432060;32;35844;-86
2022/01/29 05:34:49;;;;;;;;;;;;;;;3.22;53.63;100966.91;4464784;32;32579;-83
2022/01/29 05:37:37;;;;;;;;;;;;;;;3.18;53.65;100963.56;4445033;32;34299;-84
2022/01/29 05:40:05;;;;;;;;;;;;;;;3.25;53.50;100954.50;4464330;32;35123;-81
2022/01/29 05:42:32;;;;;;;;;;;;;;;3.39;53.11;100956.44;4444274;32;34745;-85
2022/01/29 05:45:00;;;;;;;;;;;;;;;3.64;52.32;100960.50;4440194;32;34215;-84
2022/01/29 05:47:28;;;;;;;;;;;;;;;4.18;51.00;100963.09;4439890;32;34168;-85
2022/01/29 05:49:55;;;;;;;;;;;;;;;4.28;50.82;100947.66;4445126;32;36289;-82
2022/01/29 05:52:23;;;;;;;;;;;;;;;4.36;50.39;100958.69;4434933;32;34811;-86
2022/01/29 05:54:51;;;;;;;;;;;;;;;4.28;50.56;100956.44;4463443;32;33131;-85
2022/01/29 05:57:18;;;;;;;;;;;;;;;4.72;49.28;100960.28;4431116;32;34784;-85
2022/01/29 05:59:47;;;;;;;;;;;;;;;4.01;50.91;100965.72;4445043;32;35163;-81
2022/01/29 06:02:17;;;;;;;;;;;;;;;4.14;50.60;100972.06;4465013;32;34662;-85
2022/01/29 06:04:45;;;;;;;;;;;;;;;4.46;49.77;100975.72;4444946;32;33863;-81
2022/01/29 06:07:13;;;;;;;;;;;;;;;4.50;49.40;100972.84;4445198;32;34623;-85
2022/01/29 06:09:40;;;;;;;;;;;;;;;4.49;49.24;100983.47;4445731;32;35033;-83
2022/01/29 06:12:08;;;;;;;;;;;;;;;4.62;48.78;100987.19;4440847;32;34775;-85
2022/01/29 06:14:36;;;;;;;;;;;;;;;3.68;50.78;100996.25;4444903;32;33612;-82
2022/01/29 06:17:03;;;;;;;;;;;;;;;4.38;49.12;100994.56;4440188;32;34866;-86
2022/01/29 06:19:32;;;;;;;;;;;;;;;4.07;50.13;100991.72;4444465;32;35330;-86
2022/01/29 06:21:59;;;;;;;;;;;;;;;4.21;49.98;100996.31;4439842;32;34398;-86
2022/01/29 06:24:27;;;;;;;;;;;;;;;4.07;50.40;100998.78;4444811;32;33025;-85
2022/01/29 06:26:54;;;;;;;;;;;;;;;4.19;49.92;100992.91;4465090;32;34855;-85
2022/01/29 06:29:22;;;;;;;;;;;;;;;4.08;50.55;100988.16;4419165;32;33648;-85
2022/01/29 06:31:49;;;;;;;;;;;;;;;4.10;50.76;100994.22;4445644;32;34681;-86
2022/01/29 06:34:17;;;;;;;;;;;;;;;4.13;50.92;100982.66;4441682;32;32703;-85
2022/01/29 06:36:44;;;;;;;;;;;;;;;4.32;50.76;100983.44;4441427;32;34682;-86
2022/01/29 06:39:11;;;;;;;;;;;;;;;4.15;51.41;100988.72;4430396;32;35287;-82
2022/01/29 06:41:39;;;;;;;;;;;;;;;4.05;52.03;100996.22;4443326;32;32658;-85
2022/01/29 06:44:06;;;;;;;;;;;;;;;4.13;52.09;100987.94;4445078;32;33153;-86
2022/01/29 06:46:33;;;;;;;;;;;;;;;4.32;52.14;100988.72;4442926;32;33392;-86
2022/01/29 06:49:01;;;;;;;;;;;;;;;4.49;51.99;100997.50;4446065;32;36040;-85
2022/01/29 06:51:29;;;;;;;;;;;;;;;4.31;52.39;100987.03;4454233;32;33640;-83
2022/01/29 06:53:56;;;;;;;;;;;;;;;4.22;52.65;100985.72;4444280;32;33020;-83
2022/01/29 06:56:26;;;;;;;;;;;;;;;4.56;52.07;100991.00;4445221;32;34369;-82
2022/01/29 06:58:54;;;;;;;;;;;;;;;4.21;52.99;100994.53;4464842;32;35923;-86
2022/01/29 07:01:39;;;;;;;;;;;;;;;4.15;52.44;101002.72;4433283;32;34245;-84
2022/01/29 07:04:06;;;;;;;;;;;;;;;4.29;52.01;101000.28;4440127;32;33648;-81
2022/01/29 07:06:36;;;;;;;;;;;;;;;4.21;52.45;101009.47;4444440;32;33483;-85
2022/01/29 07:09:04;;;;;;;;;;;;;;;4.23;52.53;101008.47;4427752;32;36249;-82
2022/01/29 07:11:32;;;;;;;;;;;;;;;4.03;53.58;101005.09;4426888;32;34527;-84
2022/01/29 07:14:03;;;;;;;;;;;;;;;4.04;53.34;101017.34;4439401;32;31924;-86
2022/01/29 07:16:31;;;;;;;;;;;;;;;3.71;54.23;101021.59;4442318;32;34066;-82
2022/01/29 07:18:59;;;;;;;;;;;;;;;4.12;53.28;101007.28;4439196;32;34244;-86
2022/01/29 07:21:26;;;;;;;;;;;;;;;4.43;52.70;101012.78;4444369;32;33937;-85
2022/01/29 07:23:54;;;;;;;;;;;;;;;4.10;53.98;101009.16;4464780;32;33934;-85
2022/01/29 07:26:21;;;;;;;;;;;;;;;3.95;54.07;101017.78;4444430;32;33227;-84
2022/01/29 07:28:49;;;;;;;;;;;;;;;3.99;54.23;101009.66;4451133;32;35981;-85
2022/01/29 07:31:20;;;;;;;;;;;;;;;3.96;54.14;101016.87;4445608;32;34566;-86
2022/01/29 07:33:48;;;;;;;;;;;;;;;4.22;53.78;101009.41;4438057;32;33299;-85
2022/01/29 07:36:15;;;;;;;;;;;;;;;4.17;53.90;101024.56;4443884;32;33442;-85
2022/01/29 07:38:43;;;;;;;;;;;;;;;4.21;53.69;101025.28;4441679;32;37140;-85
2022/01/29 07:41:10;;;;;;;;;;;;;;;4.46;53.26;101025.78;4443055;32;34688;-86
2022/01/29 07:43:37;;;;;;;;;;;;;;;4.81;52.29;101024.88;4444462;32;33171;-83
2022/01/29 07:46:05;;;;;;;;;;;;;;;4.60;52.54;101020.66;4438537;32;33389;-85
2022/01/29 07:48:33;;;;;;;;;;;;;;;4.64;52.34;101025.69;4443379;32;36043;-83
2022/01/29 07:51:00;;;;;;;;;;;;;;;4.91;52.13;101018.19;4425998;32;34090;-85
2022/01/29 07:53:28;;;;;;;;;;;;;;;4.99;51.79;101022.12;4445355;32;33010;-85
2022/01/29 07:55:55;;;;;;;;;;;;;;;5.42;50.86;101015.41;4442595;32;33910;-82
2022/01/29 07:58:23;;;;;;;;;;;;;;;5.30;51.06;101010.81;4441482;32;34663;-85
2022/01/29 08:00:50;;;;;;;;;;;;;;;5.60;50.46;101024.03;4461056;32;34418;-84
2022/01/29 08:03:18;;;;;;;;;;;;;;;5.65;50.44;101021.16;4445173;32;33381;-82
2022/01/29 08:05:46;;;;;;;;;;;;;;;5.60;50.22;101026.69;4446988;32;35069;-83
2022/01/29 08:08:19;;;;;;;;;;;;;;;5.52;50.23;101028.88;4442526;32;35680;-82
2022/01/29 08:10:47;;;;;;;;;;;;;;;5.61;50.29;101020.47;4445662;32;34119;-84
2022/01/29 08:13:15;;;;;;;;;;;;;;;5.83;49.59;101018.41;4433055;32;34218;-85
2022/01/29 08:15:42;;;;;;;;;;;;;;;5.91;49.22;101023.25;4446322;32;34148;-83
2022/01/29 08:18:10;;;;;;;;;;;;;;;6.02;49.02;101026.13;4440645;32;34783;-85
2022/01/29 08:20:38;;;;;;;;;;;;;;;5.87;49.62;101024.38;4458001;32;35263;-85
2022/01/29 08:23:07;;;;;;;;;;;;;;;6.15;48.69;101022.72;4446890;32;33321;-85
2022/01/29 08:25:35;;;;;;;;;;;;;;;6.08;48.29;101021.34;4444475;32;34370;-85
2022/01/29 08:28:03;;;;;;;;;;;;;;;6.12;48.34;101022.91;4445139;32;35552;-83
2022/01/29 08:30:31;;;;;;;;;;;;;;;6.08;47.82;101021.34;4442225;32;34137;-84
2022/01/29 08:32:59;;;;;;;;;;;;;;;5.97;48.47;101023.75;4438032;32;32668;-82
2022/01/29 08:35:27;;;;;;;;;;;;;;;6.28;48.10;101017.59;4444930;32;33482;-84
2022/01/29 08:37:57;;;;;;;;;;;;;;;6.14;47.90;101028.94;4442794;32;37379;-85
2022/01/29 08:40:24;;;;;;;;;;;;;;;6.18;47.72;101024.34;4440828;32;34687;-84
2022/01/29 08:42:52;;;;;;;;;;;;;;;6.24;46.83;101019.56;4438388;32;32734;-83
2022/01/29 08:45:20;;;;;;;;;;;;;;;6.26;46.84;101022.94;4445615;32;34707;-85
2022/01/29 08:47:47;;;;;;;;;;;;;;;6.09;46.16;101025.72;4444428;32;35341;-84
2022/01/29 08:50:15;;;;;;;;;;;;;;;6.19;45.66;101023.41;4442232;32;34433;-83
2022/01/29 08:52:42;;;;;;;;;;;;;;;6.53;45.31;101028.47;4444354;32;33906;-86
2022/01/29 08:55:09;;;;;;;;;;;;;;;6.11;47.33;101031.78;4444108;32;33580;-82
2022/01/29 08:57:37;;;;;;;;;;;;;;;6.16;46.13;101028.88;4445507;32;36158;-82
2022/01/29 09:00:07;;;;;;;;;;;;;;;6.04;45.58;101029.53;4440615;32;35355;-86
2022/01/29 09:02:35;;;;;;;;;;;;;;;5.98;45.37;101038.66;4445500;32;34007;-85
2022/01/29 09:05:02;;;;;;;;;;;;;;;6.24;44.53;101035.41;4440544;32;33874;-86
2022/01/29 09:07:30;;;;;;;;;;;;;;;6.30;44.44;101031.56;4443574;32;35781;-82
2022/01/29 09:09:57;;;;;;;;;;;;;;;6.50;43.99;101036.56;4439505;32;34686;-86
2022/01/29 09:12:24;;;;;;;;;;;;;;;6.54;42.53;101031.00;4442325;32;32333;-83
2022/01/29 09:14:52;;;;;;;;;;;;;;;6.55;41.78;101026.56;4465505;32;34211;-85
2022/01/29 09:17:22;;;;;;;;;;;;;;;6.92;41.28;101024.28;4443189;32;36045;-84
2022/01/29 09:19:49;;;;;;;;;;;;;;;6.60;40.95;101040.41;4437849;32;34712;-82
2022/01/29 09:22:17;;;;;;;;;;;;;;;6.62;41.28;101034.06;4445989;32;33323;-85
2022/01/29 09:24:44;;;;;;;;;;;;;;;6.82;40.72;101030.25;4454247;32;32828;-83
2022/01/29 09:27:14;;;;;;;;;;;;;;;6.75;40.65;101021.84;4439469;32;34746;-83
2022/01/29 09:29:41;;;;;;;;;;;;;;;6.35;41.02;101029.53;4443182;32;34399;-86
2022/01/29 09:32:09;;;;;;;;;;;;;;;6.67;40.24;101028.50;4444516;32;32697;-85
2022/01/29 09:34:36;;;;;;;;;;;;;;;6.72;40.95;101011.41;4442114;32;34238;-86
2022/01/29 09:37:04;;;;;;;;;;;;;;;7.02;40.43;101017.53;4464464;32;34761;-83
2022/01/29 09:39:32;;;;;;;;;;;;;;;7.11;40.93;101021.41;4443033;32;34463;-84
2022/01/29 09:42:01;;;;;;;;;;;;;;;7.13;41.80;101008.94;4441416;32;32959;-81
2022/01/29 09:44:30;;;;;;;;;;;;;;;6.94;40.36;101008.34;4421522;32;33033;-85
2022/01/29 09:46:57;;;;;;;;;;;;;;;7.05;41.59;101005.91;4436577;32;35445;-84
2022/01/29 09:49:25;;;;;;;;;;;;;;;6.92;42.49;101004.94;4441798;32;35326;-86
2022/01/29 09:51:52;;;;;;;;;;;;;;;6.93;43.16;100991.62;4436884;32;32696;-83
2022/01/29 09:54:19;;;;;;;;;;;;;;;7.32;42.51;100988.34;4429637;32;33316;-85
2022/01/29 09:56:47;;;;;;;;;;;;;;;7.33;42.71;100976.78;4429441;32;34794;-85
2022/01/29 09:59:14;;;;;;;;;;;;;;;7.78;42.29;100973.91;4444762;32;33832;-84
2022/01/29 10:01:44;;;;;;;;;;;;;;;7.82;42.09;100970.94;4440506;32;34156;-85
2022/01/29 10:04:12;;;;;;;;;;;;;;;8.06;41.98;100971.16;4438822;32;32317;-85
2022/01/29 10:06:43;;;;;;;;;;;;;;;7.85;42.47;100983.16;4442810;32;34067;-87
2022/01/29 10:09:12;;;;;;;;;;;;;;;7.63;42.88;100970.44;4439288;32;34039;-84
2022/01/29 10:11:40;;;;;;;;;;;;;;;7.37;43.71;100965.91;4442678;32;32511;-84
2022/01/29 10:14:07;;;;;;;;;;;;;;;7.30;44.00;100969.06;4443954;32;33921;-85
2022/01/29 10:16:40;;;;;;;;;;;;;;;6.95;44.46;100971.22;4440419;32;34921;-85
2022/01/29 10:19:11;;;;;;;;;;;;;;;7.13;45.25;100966.59;4439045;32;34527;-85
2022/01/29 10:21:43;;;;;;;;;;;;;;;7.34;44.20;100965.25;4430310;32;32762;-85
2022/01/29 10:24:12;;;;;;;;;;;;;;;7.52;44.13;100958.81;4438274;32;34857;-84
2022/01/29 10:26:43;;;;;;;;;;;;;;;7.07;44.93;100964.34;4442451;32;35188;-84
2022/01/29 10:29:19;;;;;;;;;;;;;;;7.13;45.00;100970.09;4430084;32;36489;-83
2022/01/29 10:31:46;;;;;;;;;;;;;;;6.92;45.79;100967.91;4430774;32;33097;-85
2022/01/29 10:34:16;;;;;;;;;;;;;;;6.66;45.81;100969.50;4444108;32;33221;-83
2022/01/29 10:36:44;;;;;;;;;;;;;;;6.81;45.63;100967.72;4444169;32;35251;-84
2022/01/29 10:39:11;;;;;;;;;;;;;;;6.79;45.86;100959.03;4438502;32;35422;-83
2022/01/29 10:41:39;;;;;;;;;;;;;;;6.71;46.06;100951.53;4442101;32;33011;-82
2022/01/29 10:44:21;;;;;;;;;;;;;;;6.91;46.19;100955.63;4429706;32;34488;-85
2022/01/29 10:46:50;;;;;;;;;;;;;;;7.02;46.34;100956.69;4443875;32;35105;-85
2022/01/29 10:49:23;;;;;;;;;;;;;;;6.97;46.03;100957.88;4428966;32;35139;-84
2022/01/29 10:52:10;;;;;;;;;;;;;;;7.10;46.27;100945.63;4443809;32;32636;-84
2022/01/29 10:54:40;;;;;;;;;;;;;;;6.90;46.26;100953.94;4405800;32;35203;-84
2022/01/29 10:59:50;;;;;;;;;;;;;;;6.94;46.80;100948.38;4444349;32;34959;-81
2022/01/29 11:02:20;;;;;;;;;;;;;;;6.46;47.93;100943.38;4420236;32;31928;-82
2022/01/29 11:04:52;;;;;;;;;;;;;;;6.50;48.25;100939.59;4437828;32;33408;-81
2022/01/29 11:07:26;;;;;;;;;;;;;;;6.80;47.89;100944.88;4438282;32;35271;-82
2022/01/29 11:10:01;;;;;;;;;;;;;;;6.92;48.33;100942.28;4435847;32;35113;-81
2022/01/29 11:12:41;;;;;;;;;;;;;;;7.15;46.98;100928.50;4435892;32;33589;-81
2022/01/29 11:15:17;;;;;;;;;;;;;;;7.09;47.09;100939.47;4435067;32;32398;-81
2022/01/29 11:17:46;;;;;;;;;;;;;;;7.09;47.77;100923.59;4424979;32;34947;-81
2022/01/29 11:20:16;;;;;;;;;;;;;;;7.47;47.51;100918.56;4437796;32;35460;-81
2022/01/29 11:22:44;;;;;;;;;;;;;;;7.61;47.07;100911.44;4422183;32;32924;-81
2022/01/29 11:25:16;;;;;;;;;;;;;;;7.19;47.87;100921.25;4430865;32;34588;-81
2022/01/29 11:27:44;;;;;;;;;;;;;;;7.51;47.63;100902.38;4425585;32;33890;-81
2022/01/29 11:30:13;;;;;;;;;;;;;;;7.34;47.99;100897.31;4437968;32;34746;-81
2022/01/29 11:32:44;;;;;;;;;;;;;;;7.20;48.27;100892.03;4437636;32;32912;-81
2022/01/29 11:35:16;;;;;;;;;;;;;;;7.14;47.95;100894.19;4435856;32;33696;-81
2022/01/29 11:37:45;;;;;;;;;;;;;;;7.15;48.46;100890.59;4435820;32;35717;-81
2022/01/29 11:40:13;;;;;;;;;;;;;;;6.80;49.01;100881.37;4424083;32;34431;-81
2022/01/29 11:42:59;;;;;;;;;;;;;;;7.26;48.10;100883.69;4444432;32;33999;-82
2022/01/29 11:45:38;;;;;;;;;;;;;;;6.97;48.51;100878.53;4443258;32;32949;-81
2022/01/29 11:48:08;;;;;;;;;;;;;;;7.34;48.19;100872.59;4430490;32;34563;-82
2022/01/29 11:50:45;;;;;;;;;;;;;;;7.01;49.17;100872.13;4432851;32;33263;-85
2022/01/29 11:53:22;;;;;;;;;;;;;;;6.77;49.62;100861.25;4447371;32;32825;-83
2022/01/29 11:55:52;;;;;;;;;;;;;;;6.89;49.48;100865.78;4421686;32;32861;-83
2022/01/29 11:58:21;;;;;;;;;;;;;;;7.04;48.97;100856.91;4429765;32;34955;-83
2022/01/29 12:00:58;;;;;;;;;;;;;;;7.23;48.56;100859.22;4434601;32;34773;-82
2022/01/29 12:03:34;;;;;;;;;;;;;;;7.26;47.87;100848.47;4449304;32;33219;-82
2022/01/29 12:06:05;;;;;;;;;;;;;;;7.48;47.71;100846.13;4437367;32;33665;-82
2022/01/29 12:08:39;;;;;;;;;;;;;;;7.48;47.76;100846.97;4421144;32;33825;-80
2022/01/29 12:11:12;;;;;;;;;;;;;;;7.62;47.95;100841.63;4450531;32;33881;-81
2022/01/29 12:13:43;;;;;;;;;;;;;;;7.92;46.87;100822.84;4437053;32;34131;-81
2022/01/29 12:16:44;;;;;;;;;;;;;;;8.13;46.66;100830.19;4436843;32;34524;-80
2022/01/29 12:19:32;;;;;;;;;;;;;;;8.03;46.68;100830.94;4451311;32;34661;-80
2022/01/29 12:22:00;;;;;;;;;;;;;;;7.64;47.54;100828.28;4429880;32;33816;-81
2022/01/29 12:24:28;;;;;;;;;;;;;;;7.76;46.95;100822.16;4430456;32;32338;-81
2022/01/29 12:26:57;;;;;;;;;;;;;;;8.04;46.23;100808.78;4450938;32;33529;-80
2022/01/29 12:29:25;;;;;;;;;;;;;;;8.02;46.44;100811.50;4433773;32;34946;-80
2022/01/29 12:31:56;;;;;;;;;;;;;;;7.72;47.23;100812.75;4428896;32;34453;-81
2022/01/29 12:34:27;;;;;;;;;;;;;;;7.67;47.28;100806.87;4437712;32;33563;-80
2022/01/29 12:37:06;;;;;;;;;;;;;;;7.94;46.45;100797.09;4424283;32;34597;-81
2022/01/29 12:39:35;;;;;;;;;;;;;;;7.47;47.92;100804.72;4435708;32;33954;-79
2022/01/29 12:44:43;;;;;;;;;;;;;;;7.40;47.77;100780.44;4449679;32;34064;-81
2022/01/29 12:47:23;;;;;;;;;;;;;;;7.35;48.10;100779.06;4426127;32;34170;-81
2022/01/29 12:49:53;;;;;;;;;;;;;;;7.44;47.87;100773.97;4424094;32;35143;-81
2022/01/29 12:52:25;;;;;;;;;;;;;;;7.86;46.73;100765.84;4438695;32;35036;-81
2022/01/29 12:54:58;;;;;;;;;;;;;;;8.06;46.18;100757.38;4424213;32;33800;-79
2022/01/29 12:57:48;;;;;;;;;;;;;;;7.81;47.04;100762.63;4432262;32;33313;-79
2022/01/29 13:00:18;;;;;;;;;;;;;;;7.87;46.60;100756.94;4405931;32;33912;-78
2022/01/29 13:02:49;;;;;;;;;;;;;;;8.21;46.21;100753.69;4431141;32;35285;-80
2022/01/29 13:05:20;;;;;;;;;;;;;;;8.01;46.61;100746.22;4429765;32;33369;-80
2022/01/29 13:07:49;;;;;;;;;;;;;;;7.49;47.69;100749.84;4422580;32;34209;-80
2022/01/29 13:10:17;;;;;;;;;;;;;;;7.87;46.63;100746.34;4436140;32;36201;-80
2022/01/29 13:12:46;;;;;;;;;;;;;;;7.69;47.31;100747.59;4416994;32;35614;-81
2022/01/29 13:15:15;;;;;;;;;;;;;;;7.97;46.70;100744.75;4395391;32;33652;-80